createdAt,value
2018-06-22T00:01:39.118Z,94973.95
2018-06-22T00:04:05.805Z,94966.03
2018-06-22T00:06:32.397Z,94971.89
2018-06-22T00:08:59.115Z,94968.13
2018-06-22T00:11:25.807Z,94964.53
2018-06-22T00:13:52.520Z,94958.50
2018-06-22T00:16:19.166Z,94963.52
2018-06-22T00:18:45.802Z,94962.38
2018-06-22T00:21:12.448Z,94959.71
2018-06-22T00:23:39.124Z,94954.69
2018-06-22T00:26:05.758Z,94954.84
2018-06-22T00:28:32.398Z,94952.68
2018-06-22T00:30:59.041Z,94950.28
2018-06-22T00:33:25.801Z,94952.23
2018-06-22T00:35:52.441Z,94942.89
2018-06-22T00:38:19.096Z,94939.84
2018-06-22T00:40:45.735Z,94943.39
2018-06-22T00:43:12.418Z,94938.94
2018-06-22T00:45:39.049Z,94938.89
2018-06-22T00:48:07.969Z,94934.23
2018-06-22T00:50:32.365Z,94935.36
2018-06-22T00:52:59.047Z,94930.22
2018-06-22T00:55:25.695Z,94929.84
2018-06-22T00:57:52.378Z,94922.44
2018-06-22T01:00:19.017Z,94918.44
2018-06-22T01:02:45.734Z,94915.42
2018-06-22T01:05:12.377Z,94913.73
2018-06-22T01:07:39.097Z,94919.78
2018-06-22T01:10:05.706Z,94918.77
2018-06-22T01:12:32.348Z,94920.36
2018-06-22T01:14:58.983Z,94919.30
2018-06-22T01:17:25.661Z,94918.16
2018-06-22T01:19:52.304Z,94920.05
2018-06-22T01:22:18.960Z,94921.88
2018-06-22T01:24:45.592Z,94920.42
2018-06-22T01:27:12.263Z,94918.92
2018-06-22T01:29:41.798Z,94910.89
2018-06-22T01:32:08.429Z,94912.73
2018-06-22T01:34:35.078Z,94909.94
2018-06-22T01:37:01.759Z,94914.12
2018-06-22T01:39:28.466Z,94915.33
2018-06-22T01:41:55.098Z,94922.47
2018-06-22T01:44:21.739Z,94926.73
2018-06-22T01:46:48.382Z,94935.59
2018-06-22T01:49:15.115Z,94939.27
2018-06-22T01:51:41.748Z,94931.62
2018-06-22T01:54:08.496Z,94936.09
2018-06-22T01:56:35.140Z,94938.77
2018-06-22T01:59:01.786Z,94936.81
2018-06-22T02:01:28.420Z,94940.94
2018-06-22T02:03:55.105Z,94942.52
2018-06-22T02:06:21.786Z,94946.95
2018-06-22T02:08:48.470Z,94948.08
2018-06-22T02:11:15.174Z,94957.08
2018-06-22T02:13:41.774Z,94952.70
2018-06-22T02:16:08.463Z,94950.48
2018-06-22T02:18:35.104Z,94956.50
2018-06-22T02:21:01.747Z,94949.22
2018-06-22T02:23:28.384Z,94952.91
2018-06-22T02:25:55.031Z,94948.23
2018-06-22T02:28:21.680Z,94946.70
2018-06-22T02:30:48.374Z,94952.80
2018-06-22T02:33:15.011Z,94952.66
2018-06-22T02:35:41.697Z,94962.16
2018-06-22T02:38:08.325Z,94957.23
2018-06-22T02:40:35.016Z,94954.05
2018-06-22T02:43:01.658Z,94956.83
2018-06-22T02:45:28.334Z,94965.06
2018-06-22T02:47:55.026Z,94966.09
2018-06-22T02:50:21.658Z,94969.77
2018-06-22T02:52:48.343Z,94960.31
2018-06-22T02:55:14.977Z,94962.81
2018-06-22T02:57:41.609Z,94962.23
2018-06-22T03:00:08.259Z,94972.18
2018-06-22T03:02:34.936Z,94971.28
2018-06-22T03:05:01.575Z,94973.69
2018-06-22T03:07:28.266Z,94980.70
2018-06-22T03:09:54.986Z,94971.22
2018-06-22T03:12:21.615Z,94976.21
2018-06-22T03:14:48.264Z,94980.16
2018-06-22T03:17:14.908Z,94979.05
2018-06-22T03:19:41.603Z,94973.26
2018-06-22T03:22:08.237Z,94977.48
2018-06-22T03:24:34.870Z,94979.52
2018-06-22T03:27:01.531Z,94976.94
2018-06-22T03:29:28.212Z,94977.48
2018-06-22T03:31:54.964Z,94970.44
2018-06-22T03:34:21.569Z,94978.23
2018-06-22T03:36:48.241Z,94975.37
2018-06-22T03:39:14.919Z,94977.08
2018-06-22T03:41:41.523Z,94981.17
2018-06-22T03:44:08.161Z,94969.80
2018-06-22T03:46:34.807Z,94965.71
2018-06-22T03:49:01.493Z,94974.06
2018-06-22T03:51:28.145Z,94977.42
2018-06-22T03:53:54.781Z,94972.03
2018-06-22T03:56:21.459Z,94969.45
2018-06-22T03:58:48.111Z,94977.17
2018-06-22T04:01:14.745Z,94972.91
2018-06-22T04:03:41.403Z,94982.42
2018-06-22T04:06:08.038Z,94978.33
2018-06-22T04:08:34.725Z,94977.63
2018-06-22T04:11:01.407Z,94973.11
2018-06-22T04:13:28.010Z,94977.44
2018-06-22T04:15:54.694Z,94974.45
2018-06-22T04:18:21.333Z,94971.42
2018-06-22T04:20:47.968Z,94965.72
2018-06-22T04:23:14.669Z,94960.47
2018-06-22T04:25:42.654Z,94964.14
2018-06-22T04:28:09.580Z,94962.92
2018-06-22T04:30:34.590Z,94962.77
2018-06-22T04:33:01.228Z,94955.91
2018-06-22T04:35:27.875Z,94958.78
2018-06-22T04:37:54.511Z,94959.44
2018-06-22T04:40:21.209Z,94953.29
2018-06-22T04:42:47.933Z,94952.92
2018-06-22T04:45:14.636Z,94958.62
2018-06-22T04:47:41.343Z,94954.95
2018-06-22T04:50:07.962Z,94950.08
2018-06-22T04:52:34.616Z,94949.81
2018-06-22T04:55:01.256Z,94941.16
2018-06-22T04:57:27.905Z,94946.89
2018-06-22T04:59:57.651Z,94954.14
2018-06-22T05:02:24.331Z,94956.25
2018-06-22T05:04:51.183Z,94954.22
2018-06-22T05:07:17.873Z,94943.70
2018-06-22T05:09:44.510Z,94938.88
2018-06-22T05:12:11.146Z,94935.30
2018-06-22T05:14:37.850Z,94936.19
2018-06-22T05:17:04.531Z,94936.39
2018-06-22T05:19:31.165Z,94936.25
2018-06-22T05:21:57.802Z,94930.85
2018-06-22T05:24:24.462Z,94927.92
2018-06-22T05:26:51.106Z,94921.20
2018-06-22T05:29:17.791Z,94919.65
2018-06-22T05:31:44.450Z,94919.47
2018-06-22T05:34:11.087Z,94917.17
2018-06-22T05:36:37.735Z,94917.39
2018-06-22T05:39:04.408Z,94918.80
2018-06-22T05:41:31.196Z,94909.54
2018-06-22T05:43:57.809Z,94919.68
2018-06-22T05:46:24.524Z,94916.66
2018-06-22T05:48:51.219Z,94918.13
2018-06-22T05:51:17.929Z,94915.75
2018-06-22T05:53:44.611Z,94907.56
2018-06-22T05:56:11.226Z,94911.98
2018-06-22T05:58:37.945Z,94910.00
2018-06-22T06:01:04.595Z,94915.66
2018-06-22T06:03:31.256Z,94912.52
2018-06-22T06:05:57.951Z,94916.39
2018-06-22T06:08:24.553Z,94910.48
2018-06-22T06:10:51.189Z,94908.28
2018-06-22T06:13:17.869Z,94907.05
2018-06-22T06:15:44.461Z,94910.27
2018-06-22T06:18:11.142Z,94909.58
2018-06-22T06:20:37.837Z,94905.38
2018-06-22T06:23:04.522Z,94907.34
2018-06-22T06:25:31.276Z,94896.20
2018-06-22T06:27:57.931Z,94896.34
2018-06-22T06:30:24.614Z,94898.34
2018-06-22T06:32:51.283Z,94894.03
2018-06-22T06:35:17.942Z,94890.54
2018-06-22T06:37:44.663Z,94891.42
2018-06-22T06:40:11.321Z,94882.92
2018-06-22T06:42:38.026Z,94878.81
2018-06-22T06:45:04.943Z,94879.75
2018-06-22T06:47:31.533Z,94882.92
2018-06-22T06:49:58.217Z,94881.84
2018-06-22T06:52:24.833Z,94878.95
2018-06-22T06:54:51.656Z,94876.48
2018-06-22T06:57:18.350Z,94876.30
2018-06-22T06:59:44.992Z,94872.19
2018-06-22T07:02:11.633Z,94873.53
2018-06-22T07:04:38.316Z,94869.23
2018-06-22T07:07:04.954Z,94868.67
2018-06-22T07:09:31.718Z,94867.00
2018-06-22T07:11:58.360Z,94862.41
2018-06-22T07:14:25.148Z,94864.50
2018-06-22T07:16:51.788Z,94866.06
2018-06-22T07:19:18.394Z,94869.58
2018-06-22T07:21:45.099Z,94871.94
2018-06-22T07:24:11.755Z,94874.73
2018-06-22T07:26:38.392Z,94867.65
2018-06-22T07:29:05.042Z,94869.17
2018-06-22T07:31:31.718Z,94866.66
2018-06-22T07:33:58.590Z,94868.51
2018-06-22T07:36:25.416Z,94866.84
2018-06-22T07:38:52.111Z,94865.34
2018-06-22T07:41:18.746Z,94864.80
2018-06-22T07:43:45.386Z,94864.10
2018-06-22T07:46:12.072Z,94854.59
2018-06-22T07:48:38.760Z,94853.63
2018-06-22T07:51:05.398Z,94848.69
2018-06-22T07:53:32.187Z,94847.72
2018-06-22T07:55:58.869Z,94852.03
2018-06-22T07:58:25.542Z,94844.59
2018-06-22T08:00:52.212Z,94836.21
2018-06-22T08:03:18.869Z,94832.48
2018-06-22T08:05:45.551Z,94834.17
2018-06-22T08:08:12.260Z,94831.98
2018-06-22T08:10:38.914Z,94831.40
2018-06-22T08:13:05.587Z,94830.33
2018-06-22T08:15:32.232Z,94827.16
2018-06-22T08:17:58.875Z,94829.58
2018-06-22T08:20:26.616Z,94825.17
2018-06-22T08:22:53.224Z,94830.09
2018-06-22T08:25:19.923Z,94822.75
2018-06-22T08:27:46.604Z,94830.08
2018-06-22T08:30:13.292Z,94827.64
2018-06-22T08:32:39.969Z,94822.52
2018-06-22T08:35:06.780Z,94820.28
2018-06-22T08:37:33.420Z,94827.16
2018-06-22T08:40:00.197Z,94821.78
2018-06-22T08:42:26.932Z,94820.81
2018-06-22T08:44:53.539Z,94820.71
2018-06-22T08:47:20.240Z,94817.80
2018-06-22T08:49:46.880Z,94813.42
2018-06-22T08:52:13.524Z,94812.44
2018-06-22T08:54:40.176Z,94808.88
2018-06-22T08:57:06.810Z,94809.38
2018-06-22T08:59:33.495Z,94802.70
2018-06-22T09:02:00.201Z,94801.77
2018-06-22T09:04:26.892Z,94796.74
2018-06-22T09:06:53.568Z,94800.86
2018-06-22T09:09:20.319Z,94792.98
2018-06-22T09:11:46.949Z,94790.73
2018-06-22T09:14:13.594Z,94791.27
2018-06-22T09:16:40.240Z,94786.61
2018-06-22T09:19:06.880Z,94772.50
2018-06-22T09:21:35.962Z,94780.87
2018-06-22T09:24:02.606Z,94783.03
2018-06-22T09:26:29.307Z,94777.11
2018-06-22T09:28:55.914Z,94769.32
2018-06-22T09:31:22.641Z,94762.55
2018-06-22T09:33:49.227Z,94757.20
2018-06-22T09:36:15.892Z,94757.86
2018-06-22T09:38:42.533Z,94755.14
2018-06-22T09:41:09.256Z,94750.37
2018-06-22T09:43:35.917Z,94750.86
2018-06-22T09:46:02.565Z,94746.93
2018-06-22T09:48:29.221Z,94739.84
2018-06-22T09:50:56.883Z,94731.64
2018-06-22T09:53:23.486Z,94731.29
2018-06-22T09:55:50.119Z,94726.23
2018-06-22T09:58:16.820Z,94719.70
2018-06-22T10:00:43.421Z,94715.59
2018-06-22T10:03:10.055Z,94711.71
2018-06-22T10:05:39.295Z,94704.96
2018-06-22T10:08:05.984Z,94705.05
2018-06-22T10:10:33.774Z,94697.43
2018-06-22T10:12:59.308Z,94692.59
2018-06-22T10:15:27.029Z,94696.28
2018-06-22T10:17:54.760Z,94697.43
2018-06-22T10:20:21.443Z,94692.78
2018-06-22T10:22:48.120Z,94691.52
2018-06-22T10:25:14.747Z,94694.28
2018-06-22T10:27:41.397Z,94691.85
2018-06-22T10:30:08.066Z,94686.12
2018-06-22T10:32:34.736Z,94685.40
2018-06-22T10:35:02.438Z,94688.25
2018-06-22T10:37:29.117Z,94682.88
2018-06-22T10:39:55.751Z,94681.84
2018-06-22T10:42:22.472Z,94676.00
2018-06-22T10:44:49.126Z,94669.11
2018-06-22T10:47:16.840Z,94662.70
2018-06-22T10:49:43.525Z,94651.98
2018-06-22T10:52:10.135Z,94664.83
2018-06-22T10:54:37.101Z,94663.08
2018-06-22T10:57:03.784Z,94658.59
2018-06-22T10:59:30.482Z,94658.22
2018-06-22T11:01:57.151Z,94656.95
2018-06-22T11:04:23.889Z,94651.27
2018-06-22T11:06:50.589Z,94644.88
2018-06-22T11:09:17.198Z,94639.59
2018-06-22T11:11:46.830Z,94644.16
2018-06-22T11:14:13.477Z,94638.38
2018-06-22T11:16:40.131Z,94647.14
2018-06-22T11:19:06.849Z,94640.83
2018-06-22T11:21:33.552Z,94627.97
2018-06-22T11:24:00.232Z,94619.86
2018-06-22T11:26:26.885Z,94622.93
2018-06-22T11:28:53.600Z,94620.71
2018-06-22T11:31:20.285Z,94623.20
2018-06-22T11:33:46.885Z,94627.03
2018-06-22T11:36:13.564Z,94647.50
2018-06-22T11:38:40.429Z,94660.72
2018-06-22T11:41:07.148Z,94669.09
2018-06-22T11:43:33.789Z,94687.66
2018-06-22T11:46:00.438Z,94683.72
2018-06-22T11:48:27.091Z,94697.21
2018-06-22T11:50:53.770Z,94699.41
2018-06-22T11:53:20.433Z,94711.97
2018-06-22T11:55:47.178Z,94723.48
2018-06-22T11:58:13.809Z,94729.11
2018-06-22T12:00:40.505Z,94736.31
2018-06-22T12:03:07.201Z,94751.95
2018-06-22T12:05:33.965Z,94736.58
2018-06-22T12:08:00.653Z,94741.09
2018-06-22T12:10:27.342Z,94728.69
2018-06-22T12:12:54.005Z,94726.41
2018-06-22T12:15:20.680Z,94740.43
2018-06-22T12:17:47.324Z,94742.22
2018-06-22T12:20:14.024Z,94754.01
2018-06-22T12:22:40.694Z,94767.91
2018-06-22T12:25:07.486Z,94780.61
2018-06-22T12:27:34.167Z,94781.11
2018-06-22T12:30:00.846Z,94781.88
2018-06-22T12:32:27.506Z,94783.56
2018-06-22T12:34:54.149Z,94784.62
2018-06-22T12:37:20.990Z,94774.28
2018-06-22T12:39:47.722Z,94750.53
2018-06-22T12:42:14.384Z,94772.72
2018-06-22T12:44:41.096Z,94771.51
2018-06-22T12:47:07.700Z,94752.39
2018-06-22T12:49:34.389Z,94742.41
2018-06-22T12:52:01.038Z,94732.10
2018-06-22T12:54:27.722Z,94738.52
2018-06-22T12:56:54.367Z,94736.78
2018-06-22T12:59:21.023Z,94737.92
2018-06-22T13:01:47.699Z,94736.27
2018-06-22T13:04:14.341Z,94741.97
2018-06-22T13:06:41.028Z,94730.28
2018-06-22T13:09:07.701Z,94734.75
2018-06-22T13:11:34.413Z,94729.35
2018-06-22T13:14:01.080Z,94731.22
2018-06-22T13:16:27.750Z,94729.19
2018-06-22T13:18:55.443Z,94719.09
2018-06-22T13:21:22.054Z,94715.81
2018-06-22T13:23:48.708Z,94715.09
2018-06-22T13:26:15.375Z,94702.38
2018-06-22T13:28:42.021Z,94700.85
2018-06-22T13:31:08.711Z,94704.45
2018-06-22T13:33:35.363Z,94708.39
2018-06-22T13:36:02.001Z,94707.62
2018-06-22T13:38:28.651Z,94714.77
2018-06-22T13:40:55.295Z,94711.81
2018-06-22T13:43:21.947Z,94706.70
2018-06-22T13:45:48.684Z,94706.42
2018-06-22T13:48:15.325Z,94707.77
2018-06-22T13:50:41.966Z,94705.50
2018-06-22T13:53:08.614Z,94700.80
2018-06-22T13:55:35.266Z,94707.62
2018-06-22T13:58:01.967Z,94698.70
2018-06-22T14:00:28.636Z,94705.24
2018-06-22T14:02:55.404Z,94712.50
2018-06-22T14:05:22.041Z,94728.03
2018-06-22T14:07:48.679Z,94728.49
2018-06-22T14:10:15.371Z,94717.36
2018-06-22T14:12:42.014Z,94701.28
2018-06-22T14:15:08.648Z,94696.28
2018-06-22T14:17:35.399Z,94695.38
2018-06-22T14:20:02.076Z,94689.24
2018-06-22T14:22:28.678Z,94677.09
2018-06-22T14:24:55.360Z,94668.13
2018-06-22T14:27:22.007Z,94665.48
2018-06-22T14:29:48.655Z,94673.42
2018-06-22T14:32:15.296Z,94677.78
2018-06-22T14:34:41.945Z,94684.30
2018-06-22T14:37:08.669Z,94682.75
2018-06-22T14:39:35.318Z,94675.42
2018-06-22T14:42:01.966Z,94676.34
2018-06-22T14:44:28.617Z,94669.03
2018-06-22T14:46:55.295Z,94667.24
2018-06-22T14:49:21.964Z,94663.20
2018-06-22T14:51:48.640Z,94653.75
2018-06-22T14:54:15.288Z,94660.08
2018-06-22T14:56:41.894Z,94656.67
2018-06-22T14:59:08.544Z,94653.69
2018-06-22T15:01:35.184Z,94654.10
2018-06-22T15:04:01.832Z,94657.72
2018-06-22T15:06:28.483Z,94650.11
2018-06-22T15:08:55.114Z,94649.86
2018-06-22T15:11:21.797Z,94640.20
2018-06-22T15:13:48.438Z,94644.80
2018-06-22T15:16:15.082Z,94643.29
2018-06-22T15:18:41.732Z,94650.81
2018-06-22T15:21:08.404Z,94667.20
2018-06-22T15:23:35.044Z,94683.81
2018-06-22T15:26:01.846Z,94702.97
2018-06-22T15:28:28.458Z,94730.38
2018-06-22T15:30:55.094Z,94751.59
2018-06-22T15:33:21.776Z,94758.42
2018-06-22T15:35:48.409Z,94748.86
2018-06-22T15:38:15.097Z,94742.95
2018-06-22T15:40:41.759Z,94753.91
2018-06-22T15:43:08.363Z,94757.59
2018-06-22T15:45:35.012Z,94770.34
2018-06-22T15:48:01.654Z,94777.11
2018-06-22T15:50:28.347Z,94766.95
2018-06-22T15:52:55.029Z,94774.41
2018-06-22T15:55:21.696Z,94774.36
2018-06-22T15:57:48.340Z,94785.05
2018-06-22T16:00:14.977Z,94794.19
2018-06-22T16:02:41.633Z,94790.56
2018-06-22T16:05:08.283Z,94794.29
2018-06-22T16:07:34.982Z,94799.31
2018-06-22T16:10:01.627Z,94804.17
2018-06-22T16:12:28.265Z,94802.57
2018-06-22T16:14:54.909Z,94793.46
2018-06-22T16:17:21.598Z,94793.36
2018-06-22T16:19:48.235Z,94792.89
2018-06-22T16:22:14.882Z,94782.55
2018-06-22T16:24:41.525Z,94787.31
2018-06-22T16:27:08.310Z,94780.89
2018-06-22T16:29:34.949Z,94777.73
2018-06-22T16:32:01.586Z,94780.47
2018-06-22T16:34:28.244Z,94774.50
2018-06-22T16:36:54.884Z,94767.09
2018-06-22T16:39:21.536Z,94761.13
2018-06-22T16:41:48.175Z,94756.36
2018-06-22T16:44:14.857Z,94752.55
2018-06-22T16:46:41.489Z,94757.32
2018-06-22T16:49:08.128Z,94753.19
2018-06-22T16:51:34.769Z,94741.84
2018-06-22T16:54:01.450Z,94733.73
2018-06-22T16:56:28.089Z,94741.36
2018-06-22T16:58:54.803Z,94748.42
2018-06-22T17:01:21.413Z,94738.92
2018-06-22T17:03:48.048Z,94737.28
2018-06-22T17:06:14.789Z,94734.84
2018-06-22T17:08:41.460Z,94738.84
2018-06-22T17:11:08.081Z,94748.67
2018-06-22T17:13:34.725Z,94738.53
2018-06-22T17:16:01.402Z,94747.47
2018-06-22T17:18:28.041Z,94741.89
2018-06-22T17:20:54.689Z,94744.11
2018-06-22T17:23:24.125Z,94744.59
2018-06-22T17:25:50.855Z,94740.22
2018-06-22T17:28:17.457Z,94736.84
2018-06-22T17:30:44.102Z,94746.70
2018-06-22T17:33:10.748Z,94747.91
2018-06-22T17:35:37.389Z,94748.02
2018-06-22T17:38:04.036Z,94751.45
2018-06-22T17:40:30.675Z,94755.73
2018-06-22T17:42:57.350Z,94758.72
2018-06-22T17:45:23.989Z,94761.86
2018-06-22T17:47:50.668Z,94767.55
2018-06-22T17:50:17.313Z,94767.36
2018-06-22T17:52:43.964Z,94768.76
2018-06-22T17:55:10.668Z,94770.77
2018-06-22T17:57:37.268Z,94770.59
2018-06-22T18:00:03.991Z,94769.86
2018-06-22T18:02:30.590Z,94773.30
2018-06-22T18:04:57.230Z,94774.96
2018-06-22T18:07:23.883Z,94781.83
2018-06-22T18:09:50.516Z,94781.27
2018-06-22T18:12:17.253Z,94787.95
2018-06-22T18:14:43.807Z,94785.59
2018-06-22T18:17:10.501Z,94784.03
2018-06-22T18:19:37.138Z,94784.79
2018-06-22T18:22:03.820Z,94786.16
2018-06-22T18:24:30.463Z,94791.55
2018-06-22T18:26:58.752Z,94789.97
2018-06-22T18:29:23.792Z,94792.09
2018-06-22T18:31:50.428Z,94793.23
2018-06-22T18:34:17.071Z,94803.65
2018-06-22T18:36:43.726Z,94809.06
2018-06-22T18:39:10.406Z,94819.77
2018-06-22T18:41:37.037Z,94816.42
2018-06-22T18:44:03.725Z,94817.86
2018-06-22T18:46:30.372Z,94831.23
2018-06-22T18:48:57.052Z,94836.97
2018-06-22T18:51:23.701Z,94840.83
2018-06-22T18:53:50.386Z,94844.31
2018-06-22T18:56:17.034Z,94845.34
2018-06-22T18:58:43.705Z,94846.41
2018-06-22T19:01:10.348Z,94844.71
2018-06-22T19:03:37.030Z,94850.30
2018-06-22T19:06:03.707Z,94846.27
2018-06-22T19:08:30.325Z,94844.68
2018-06-22T19:10:56.962Z,94852.70
2018-06-22T19:13:23.620Z,94854.26
2018-06-22T19:15:50.254Z,94847.47
2018-06-22T19:18:16.898Z,94847.09
2018-06-22T19:20:43.550Z,94843.63
2018-06-22T19:23:10.195Z,94840.77
2018-06-22T19:25:36.885Z,94847.58
2018-06-22T19:28:03.630Z,94856.29
2018-06-22T19:30:30.160Z,94858.44
2018-06-22T19:32:56.810Z,94847.89
2018-06-22T19:35:23.453Z,94850.95
2018-06-22T19:37:50.138Z,94858.38
2018-06-22T19:40:16.806Z,94864.70
2018-06-22T19:42:43.425Z,94868.55
2018-06-22T19:45:10.111Z,94874.17
2018-06-22T19:47:36.744Z,94881.41
2018-06-22T19:50:03.387Z,94878.80
2018-06-22T19:52:30.078Z,94888.19
2018-06-22T19:54:58.920Z,94889.95
2018-06-22T19:57:23.354Z,94880.91
2018-06-22T19:59:49.994Z,94883.22
2018-06-22T20:02:16.634Z,94876.63
2018-06-22T20:04:43.313Z,94880.16
2018-06-22T20:07:09.992Z,94884.49
2018-06-22T20:09:36.666Z,94883.29
2018-06-22T20:12:03.303Z,94886.31
2018-06-22T20:14:30.023Z,94879.11
2018-06-22T20:16:56.709Z,94881.11
2018-06-22T20:19:23.417Z,94884.45
2018-06-22T20:21:50.050Z,94879.19
2018-06-22T20:24:16.687Z,94877.27
2018-06-22T20:26:43.332Z,94885.36
2018-06-22T20:29:11.184Z,94888.34
2018-06-22T20:31:36.652Z,94894.30
2018-06-22T20:34:03.303Z,94889.39
2018-06-22T20:36:29.933Z,94897.72
2018-06-22T20:38:56.613Z,94909.14
2018-06-22T20:41:23.250Z,94903.83
2018-06-22T20:43:49.888Z,94913.21
2018-06-22T20:46:16.574Z,94913.59
2018-06-22T20:48:43.206Z,94919.72
2018-06-22T20:51:09.890Z,94925.45
2018-06-22T20:53:36.528Z,94923.16
2018-06-22T20:56:03.215Z,94929.10
2018-06-22T20:58:29.818Z,94924.57
2018-06-22T21:00:56.454Z,94935.88
2018-06-22T21:03:23.107Z,94949.13
2018-06-22T21:05:49.757Z,94953.20
2018-06-22T21:08:16.395Z,94952.63
2018-06-22T21:10:43.042Z,94954.13
2018-06-22T21:13:10.002Z,94959.66
2018-06-22T21:15:36.417Z,94962.08
2018-06-22T21:18:03.017Z,94963.20
2018-06-22T21:20:29.698Z,94965.66
2018-06-22T21:22:56.334Z,94968.73
2018-06-22T21:25:23.026Z,94980.30
2018-06-22T21:27:49.662Z,94980.94
2018-06-22T21:30:16.303Z,94982.23
2018-06-22T21:32:42.957Z,94982.88
2018-06-22T21:35:09.594Z,94982.05
2018-06-22T21:37:36.278Z,94981.48
2018-06-22T21:40:02.937Z,94979.97
2018-06-22T21:42:29.630Z,94986.83
2018-06-22T21:44:56.234Z,94989.30
2018-06-22T21:47:22.928Z,94997.66
2018-06-22T21:49:49.602Z,95005.64
2018-06-22T21:52:16.289Z,95003.23
2018-06-22T21:54:42.922Z,95007.21
2018-06-22T21:57:09.616Z,94997.23
2018-06-22T21:59:36.252Z,95001.65
2018-06-22T22:02:02.895Z,95014.97
2018-06-22T22:04:29.617Z,95008.77
2018-06-22T22:06:56.297Z,95009.31
2018-06-22T22:09:22.972Z,95006.04
2018-06-22T22:11:49.647Z,95007.27
2018-06-22T22:14:16.308Z,95014.98
2018-06-22T22:16:42.918Z,95012.58
2018-06-22T22:19:09.603Z,95016.55
2018-06-22T22:21:36.277Z,95011.94
2018-06-22T22:24:02.914Z,95012.46
2018-06-22T22:26:29.660Z,95013.10
2018-06-22T22:28:56.230Z,95017.19
2018-06-22T22:31:22.866Z,95013.91
2018-06-22T22:33:49.518Z,95020.01
2018-06-22T22:36:16.153Z,95022.33
2018-06-22T22:38:42.804Z,95027.98
2018-06-22T22:41:09.443Z,95031.44
2018-06-22T22:43:36.147Z,95037.53
2018-06-22T22:46:02.828Z,95042.92
2018-06-22T22:48:29.430Z,95042.29
2018-06-22T22:50:56.153Z,95046.32
2018-06-22T22:53:22.730Z,95041.77
2018-06-22T22:55:49.413Z,95036.60
2018-06-22T22:58:16.093Z,95032.55
2018-06-22T23:00:42.778Z,95028.69
2018-06-22T23:03:09.386Z,95025.03
2018-06-22T23:05:36.155Z,95023.11
2018-06-22T23:08:02.770Z,95021.78
2018-06-22T23:10:29.414Z,95026.97
2018-06-22T23:12:56.093Z,95027.78
2018-06-22T23:15:22.742Z,95042.02
2018-06-22T23:17:49.422Z,95045.70
2018-06-22T23:20:16.069Z,95045.70
2018-06-22T23:22:42.715Z,95049.81
2018-06-22T23:25:09.380Z,95039.95
2018-06-22T23:27:35.989Z,95045.47
2018-06-22T23:30:02.620Z,95030.98
2018-06-22T23:32:29.314Z,95038.21
2018-06-22T23:34:55.950Z,95038.91
2018-06-22T23:37:22.632Z,95042.33
2018-06-22T23:39:49.271Z,95039.80
2018-06-22T23:42:15.991Z,95046.17
2018-06-22T23:44:42.637Z,95043.13
2018-06-22T23:47:09.288Z,95046.93
2018-06-22T23:49:35.937Z,95059.34
2018-06-22T23:52:02.587Z,95060.02
2018-06-22T23:54:29.219Z,95060.66
2018-06-22T23:56:55.864Z,95052.43
2018-06-22T23:59:22.503Z,95060.34
